THY5WB LTAC-LTAJ
Flight info
| Callsign | THY5WB |
|---|---|
| Flight time | 0h 54m |
| Altitude | 35000 |
| Route | BALAX UA17 BELSU UL605 RATSI UA17 REMPO L605 ASBOM UA17 BOYAT |
| Aircraft | B738/M-SDE2E3FGHIRWXY/LB1 |
Departure
| Time | 2026-04-21 12:47 |
|---|---|
| Airport | Esenboğa International Airport (LTAC) |
Arrival
| Time | 2026-04-21 13:41 |
|---|---|
| Airport | Gaziantep Oğuzeli International Airport (LTAJ) |
| Time | Latitude | Longitude | Altitude | Speed | Heading |
|---|---|---|---|---|---|
| 2026-04-21 12:06 | 40.11630 | 32.99166 | 3135 ft | 0 kts | 151° |
| 2026-04-21 12:23 | 40.11633 | 32.99163 | 3134 ft | 1 kts | 162° |
| 2026-04-21 12:23 | 40.11646 | 32.99161 | 3134 ft | 2 kts | 153° |
| 2026-04-21 12:24 | 40.11659 | 32.99150 | 3134 ft | 2 kts | 151° |
| 2026-04-21 12:24 | 40.11670 | 32.99143 | 3134 ft | 2 kts | 153° |
| 2026-04-21 12:24 | 40.11678 | 32.99138 | 3134 ft | 2 kts | 146° |
| 2026-04-21 12:24 | 40.11685 | 32.99125 | 3134 ft | 2 kts | 110° |
| 2026-04-21 12:25 | 40.11687 | 32.99106 | 3134 ft | 2 kts | 76° |
| 2026-04-21 12:25 | 40.11684 | 32.99096 | 3134 ft | 1 kts | 58° |
| 2026-04-21 12:25 | 40.11681 | 32.99090 | 3134 ft | 0 kts | 58° |
| 2026-04-21 12:32 | 40.11684 | 32.99097 | 3134 ft | 3 kts | 59° |
| 2026-04-21 12:32 | 40.11710 | 32.99122 | 3134 ft | 4 kts | 18° |
| 2026-04-21 12:32 | 40.11754 | 32.99104 | 3134 ft | 8 kts | 326° |
| 2026-04-21 12:33 | 40.11794 | 32.99054 | 3134 ft | 9 kts | 312° |
| 2026-04-21 12:33 | 40.11858 | 32.99050 | 3134 ft | 12 kts | 31° |
| 2026-04-21 12:33 | 40.11940 | 32.99125 | 3134 ft | 16 kts | 36° |
| 2026-04-21 12:33 | 40.12023 | 32.99207 | 3134 ft | 13 kts | 36° |
| 2026-04-21 12:34 | 40.12091 | 32.99271 | 3134 ft | 11 kts | 35° |
| 2026-04-21 12:34 | 40.12149 | 32.99325 | 3134 ft | 9 kts | 36° |
| 2026-04-21 12:34 | 40.12199 | 32.99373 | 3134 ft | 8 kts | 36° |
| 2026-04-21 12:34 | 40.12244 | 32.99416 | 3134 ft | 8 kts | 37° |
| 2026-04-21 12:35 | 40.12287 | 32.99459 | 3134 ft | 7 kts | 37° |
| 2026-04-21 12:35 | 40.12346 | 32.99515 | 3134 ft | 14 kts | 36° |
| 2026-04-21 12:35 | 40.12431 | 32.99594 | 3134 ft | 14 kts | 36° |
| 2026-04-21 12:35 | 40.12513 | 32.99673 | 3134 ft | 14 kts | 37° |
| 2026-04-21 12:36 | 40.12586 | 32.99744 | 3134 ft | 11 kts | 36° |
| 2026-04-21 12:36 | 40.12655 | 32.99810 | 3134 ft | 16 kts | 36° |
| 2026-04-21 12:36 | 40.12769 | 32.99918 | 3134 ft | 19 kts | 36° |
| 2026-04-21 12:36 | 40.12867 | 33.00011 | 3134 ft | 15 kts | 36° |
| 2026-04-21 12:37 | 40.12942 | 33.00083 | 3134 ft | 11 kts | 36° |
| 2026-04-21 12:37 | 40.13001 | 33.00140 | 3134 ft | 11 kts | 36° |
| 2026-04-21 12:37 | 40.13073 | 33.00208 | 3134 ft | 11 kts | 36° |
| 2026-04-21 12:37 | 40.13151 | 33.00281 | 3134 ft | 15 kts | 36° |
| 2026-04-21 12:38 | 40.13229 | 33.00355 | 3134 ft | 13 kts | 36° |
| 2026-04-21 12:38 | 40.13303 | 33.00428 | 3134 ft | 12 kts | 36° |
| 2026-04-21 12:38 | 40.13384 | 33.00504 | 3134 ft | 14 kts | 36° |
| 2026-04-21 12:38 | 40.13456 | 33.00573 | 3134 ft | 10 kts | 36° |
| 2026-04-21 12:39 | 40.13506 | 33.00622 | 3134 ft | 7 kts | 38° |
| 2026-04-21 12:39 | 40.13545 | 33.00660 | 3134 ft | 6 kts | 36° |
| 2026-04-21 12:39 | 40.13587 | 33.00700 | 3134 ft | 8 kts | 36° |
| 2026-04-21 12:39 | 40.13627 | 33.00738 | 3134 ft | 6 kts | 35° |
| 2026-04-21 12:40 | 40.13656 | 33.00765 | 3134 ft | 5 kts | 35° |
| 2026-04-21 12:40 | 40.13698 | 33.00805 | 3134 ft | 6 kts | 36° |
| 2026-04-21 12:40 | 40.13732 | 33.00838 | 3134 ft | 6 kts | 36° |
| 2026-04-21 12:40 | 40.13770 | 33.00874 | 3134 ft | 5 kts | 36° |
| 2026-04-21 12:41 | 40.13801 | 33.00903 | 3134 ft | 7 kts | 36° |
| 2026-04-21 12:41 | 40.13844 | 33.00944 | 3134 ft | 7 kts | 36° |
| 2026-04-21 12:41 | 40.13896 | 33.00993 | 3134 ft | 10 kts | 36° |
| 2026-04-21 12:41 | 40.13948 | 33.01043 | 3134 ft | 7 kts | 34° |
| 2026-04-21 12:42 | 40.13985 | 33.01066 | 3134 ft | 4 kts | 18° |
| 2026-04-21 12:42 | 40.14026 | 33.01072 | 3134 ft | 5 kts | 354° |
| 2026-04-21 12:42 | 40.14054 | 33.01060 | 3134 ft | 4 kts | 333° |
| 2026-04-21 12:42 | 40.14070 | 33.01044 | 3134 ft | 0 kts | 318° |
| 2026-04-21 12:44 | 40.14101 | 33.00984 | 3134 ft | 17 kts | 287° |
| 2026-04-21 12:45 | 40.14146 | 33.00863 | 3134 ft | 13 kts | 306° |
| 2026-04-21 12:45 | 40.14170 | 33.00819 | 3134 ft | 0 kts | 307° |
| 2026-04-21 12:46 | 40.14171 | 33.00819 | 3134 ft | 0 kts | 307° |
| 2026-04-21 12:46 | 40.14199 | 33.00768 | 3134 ft | 16 kts | 303° |
| 2026-04-21 12:46 | 40.14183 | 33.00660 | 3134 ft | 16 kts | 223° |
| 2026-04-21 12:46 | 40.13910 | 33.00384 | 3134 ft | 89 kts | 213° |
| 2026-04-21 12:47 | 40.13216 | 32.99724 | 3135 ft | 153 kts | 215° |
| 2026-04-21 12:47 | 40.12275 | 32.98799 | 3494 ft | 177 kts | 221° |
| 2026-04-21 12:47 | 40.11305 | 32.97811 | 4223 ft | 185 kts | 218° |
| 2026-04-21 12:47 | 40.10204 | 32.96758 | 4733 ft | 205 kts | 216° |
| 2026-04-21 12:48 | 40.09003 | 32.95654 | 5254 ft | 220 kts | 216° |
| 2026-04-21 12:48 | 40.07681 | 32.94455 | 5663 ft | 241 kts | 216° |
| 2026-04-21 12:48 | 40.06305 | 32.93195 | 6473 ft | 248 kts | 217° |
| 2026-04-21 12:48 | 40.04944 | 32.91905 | 7547 ft | 245 kts | 217° |
| 2026-04-21 12:49 | 40.03565 | 32.90589 | 8434 ft | 249 kts | 216° |
| 2026-04-21 12:49 | 40.02167 | 32.89326 | 9346 ft | 251 kts | 208° |
| 2026-04-21 12:49 | 40.00486 | 32.88766 | 10155 ft | 258 kts | 178° |
| 2026-04-21 12:49 | 39.98740 | 32.89497 | 10672 ft | 280 kts | 150° |
| 2026-04-21 12:50 | 39.97125 | 32.91051 | 11067 ft | 301 kts | 146° |
| 2026-04-21 12:50 | 39.95372 | 32.92686 | 11323 ft | 324 kts | 148° |
| 2026-04-21 12:50 | 39.93477 | 32.94390 | 11983 ft | 333 kts | 147° |
| 2026-04-21 12:50 | 39.91539 | 32.96085 | 12559 ft | 342 kts | 151° |
| 2026-04-21 12:51 | 39.89388 | 32.97337 | 13358 ft | 343 kts | 165° |
| 2026-04-21 12:51 | 39.87039 | 32.97753 | 14086 ft | 346 kts | 181° |
| 2026-04-21 12:51 | 39.84634 | 32.97563 | 14848 ft | 349 kts | 185° |
| 2026-04-21 12:51 | 39.82192 | 32.97344 | 14970 ft | 359 kts | 182° |
| 2026-04-21 12:52 | 39.79708 | 32.97694 | 14955 ft | 356 kts | 164° |
| 2026-04-21 12:52 | 39.77593 | 32.99147 | 14969 ft | 351 kts | 141° |
| 2026-04-21 12:52 | 39.75987 | 33.01635 | 14996 ft | 365 kts | 126° |
| 2026-04-21 12:52 | 39.74644 | 33.04356 | 14954 ft | 353 kts | 125° |
| 2026-04-21 12:53 | 39.73302 | 33.07003 | 14968 ft | 356 kts | 126° |
| 2026-04-21 12:53 | 39.71937 | 33.09678 | 14961 ft | 353 kts | 125° |
| 2026-04-21 12:53 | 39.70594 | 33.12320 | 14966 ft | 352 kts | 125° |
| 2026-04-21 12:53 | 39.69213 | 33.15035 | 15178 ft | 362 kts | 125° |
| 2026-04-21 12:54 | 39.67848 | 33.17722 | 16078 ft | 360 kts | 125° |
| 2026-04-21 12:54 | 39.66457 | 33.20456 | 16587 ft | 369 kts | 125° |
| 2026-04-21 12:54 | 39.65052 | 33.23218 | 17384 ft | 369 kts | 126° |
| 2026-04-21 12:54 | 39.63618 | 33.26033 | 18012 ft | 374 kts | 126° |
| 2026-04-21 12:55 | 39.62233 | 33.28758 | 19226 ft | 360 kts | 126° |
| 2026-04-21 12:55 | 39.60863 | 33.31448 | 20026 ft | 358 kts | 126° |
| 2026-04-21 12:55 | 39.59497 | 33.34123 | 20804 ft | 356 kts | 127° |
| 2026-04-21 12:55 | 39.58150 | 33.36814 | 21438 ft | 359 kts | 124° |
| 2026-04-21 12:56 | 39.56963 | 33.39639 | 22011 ft | 365 kts | 117° |
| 2026-04-21 12:56 | 39.56020 | 33.42681 | 22566 ft | 369 kts | 114° |
| 2026-04-21 12:56 | 39.55110 | 33.45821 | 23088 ft | 373 kts | 114° |
| 2026-04-21 12:56 | 39.54182 | 33.48988 | 23599 ft | 377 kts | 114° |
| 2026-04-21 12:57 | 39.53258 | 33.52153 | 24095 ft | 380 kts | 114° |
| 2026-04-21 12:57 | 39.52326 | 33.55360 | 24553 ft | 385 kts | 114° |
| 2026-04-21 12:57 | 39.51378 | 33.58624 | 25031 ft | 388 kts | 114° |
| 2026-04-21 12:57 | 39.50427 | 33.61900 | 25516 ft | 392 kts | 114° |
| 2026-04-21 12:58 | 39.49483 | 33.65162 | 25901 ft | 384 kts | 115° |
| 2026-04-21 12:58 | 39.48535 | 33.68431 | 26138 ft | 390 kts | 115° |
| 2026-04-21 12:58 | 39.47577 | 33.71726 | 26687 ft | 390 kts | 115° |
| 2026-04-21 12:58 | 39.46546 | 33.74969 | 27050 ft | 388 kts | 118° |
| 2026-04-21 12:59 | 39.45319 | 33.78065 | 27242 ft | 388 kts | 126° |
| 2026-04-21 12:59 | 39.43806 | 33.80865 | 27476 ft | 384 kts | 133° |
| 2026-04-21 12:59 | 39.42120 | 33.83531 | 27982 ft | 383 kts | 134° |
| 2026-04-21 12:59 | 39.40429 | 33.86195 | 28338 ft | 387 kts | 134° |
| 2026-04-21 13:00 | 39.38712 | 33.88906 | 28700 ft | 391 kts | 134° |
| 2026-04-21 13:00 | 39.36990 | 33.91610 | 29123 ft | 392 kts | 134° |
| 2026-04-21 13:00 | 39.35264 | 33.94305 | 29482 ft | 394 kts | 134° |
| 2026-04-21 13:00 | 39.33484 | 33.97025 | 29778 ft | 399 kts | 137° |
| 2026-04-21 13:01 | 39.31569 | 33.99678 | 29825 ft | 410 kts | 137° |
| 2026-04-21 13:01 | 39.29666 | 34.02479 | 29880 ft | 422 kts | 133° |
| 2026-04-21 13:01 | 39.27873 | 34.05516 | 29931 ft | 435 kts | 128° |
| 2026-04-21 13:01 | 39.26197 | 34.08847 | 29983 ft | 447 kts | 123° |
| 2026-04-21 13:02 | 39.24651 | 34.12382 | 30033 ft | 458 kts | 120° |
| 2026-04-21 13:02 | 39.18570 | 34.21773 | 30431 ft | 461 kts | 146° |
| 2026-04-21 13:03 | 39.16086 | 34.24377 | 30561 ft | 470 kts | 139° |
| 2026-04-21 13:03 | 39.13889 | 34.27491 | 30679 ft | 473 kts | 129° |
| 2026-04-21 13:03 | 39.12121 | 34.31061 | 30951 ft | 478 kts | 122° |
| 2026-04-21 13:03 | 39.10483 | 34.34757 | 31227 ft | 479 kts | 124° |
| 2026-04-21 13:04 | 39.08540 | 34.38205 | 31455 ft | 477 kts | 132° |
| 2026-04-21 13:04 | 39.06354 | 34.41384 | 31757 ft | 476 kts | 136° |
| 2026-04-21 13:04 | 39.04126 | 34.44536 | 32073 ft | 477 kts | 135° |
| 2026-04-21 13:04 | 39.01934 | 34.47727 | 32391 ft | 478 kts | 134° |
| 2026-04-21 13:05 | 38.99788 | 34.50930 | 32743 ft | 477 kts | 134° |
| 2026-04-21 13:05 | 38.97651 | 34.54154 | 33112 ft | 476 kts | 133° |
| 2026-04-21 13:05 | 38.95493 | 34.57424 | 33472 ft | 475 kts | 133° |
| 2026-04-21 13:05 | 38.93386 | 34.60623 | 33820 ft | 474 kts | 133° |
| 2026-04-21 13:06 | 38.91269 | 34.63846 | 34209 ft | 471 kts | 132° |
| 2026-04-21 13:06 | 38.89164 | 34.67057 | 34578 ft | 469 kts | 133° |
| 2026-04-21 13:06 | 38.87069 | 34.70260 | 34940 ft | 467 kts | 133° |
| 2026-04-21 13:06 | 38.84999 | 34.73425 | 35025 ft | 468 kts | 133° |
| 2026-04-21 13:07 | 38.80858 | 34.79747 | 35019 ft | 460 kts | 133° |
| 2026-04-21 13:07 | 38.76767 | 34.85980 | 35018 ft | 458 kts | 133° |
| 2026-04-21 13:08 | 38.72662 | 34.92224 | 35009 ft | 460 kts | 133° |
| 2026-04-21 13:08 | 38.68545 | 34.98476 | 34993 ft | 461 kts | 133° |
| 2026-04-21 13:09 | 38.64480 | 35.04647 | 34984 ft | 442 kts | 134° |
| 2026-04-21 13:09 | 38.60611 | 35.10500 | 34996 ft | 434 kts | 134° |
| 2026-04-21 13:10 | 38.56678 | 35.16425 | 34996 ft | 439 kts | 134° |
| 2026-04-21 13:10 | 38.52741 | 35.22355 | 34992 ft | 441 kts | 134° |
| 2026-04-21 13:11 | 38.48680 | 35.28342 | 34996 ft | 453 kts | 135° |
| 2026-04-21 13:11 | 38.44524 | 35.34403 | 34989 ft | 457 kts | 135° |
| 2026-04-21 13:12 | 38.40356 | 35.40492 | 34991 ft | 453 kts | 135° |
| 2026-04-21 13:12 | 38.36216 | 35.46519 | 34993 ft | 453 kts | 135° |
| 2026-04-21 13:13 | 38.32091 | 35.52516 | 34994 ft | 455 kts | 135° |
| 2026-04-21 13:13 | 38.27929 | 35.58557 | 34991 ft | 453 kts | 135° |
| 2026-04-21 13:14 | 38.23768 | 35.64582 | 34993 ft | 454 kts | 135° |
| 2026-04-21 13:14 | 38.19627 | 35.70575 | 34992 ft | 454 kts | 135° |
| 2026-04-21 13:15 | 38.15465 | 35.76580 | 34998 ft | 457 kts | 135° |
| 2026-04-21 13:15 | 38.11248 | 35.82660 | 34992 ft | 460 kts | 135° |
| 2026-04-21 13:16 | 38.07056 | 35.88692 | 34992 ft | 458 kts | 135° |
| 2026-04-21 13:16 | 38.02816 | 35.94775 | 34994 ft | 460 kts | 135° |
| 2026-04-21 13:17 | 37.98600 | 36.00818 | 34991 ft | 458 kts | 135° |
| 2026-04-21 13:17 | 37.94387 | 36.06841 | 34983 ft | 458 kts | 135° |
| 2026-04-21 13:18 | 37.90183 | 36.12840 | 34968 ft | 457 kts | 135° |
| 2026-04-21 13:18 | 37.85970 | 36.18843 | 34810 ft | 454 kts | 135° |
| 2026-04-21 13:19 | 37.83863 | 36.21843 | 33989 ft | 456 kts | 135° |
| 2026-04-21 13:19 | 37.81764 | 36.24833 | 33213 ft | 456 kts | 135° |
| 2026-04-21 13:19 | 37.79687 | 36.27797 | 32643 ft | 451 kts | 135° |
| 2026-04-21 13:19 | 37.77621 | 36.30747 | 32034 ft | 447 kts | 135° |
| 2026-04-21 13:20 | 37.76263 | 36.32685 | 31632 ft | 444 kts | 135° |
| 2026-04-21 13:20 | 37.73548 | 36.36543 | 30826 ft | 439 kts | 135° |
| 2026-04-21 13:20 | 37.71535 | 36.39402 | 30223 ft | 435 kts | 135° |
| 2026-04-21 13:20 | 37.69556 | 36.42217 | 29628 ft | 432 kts | 135° |
| 2026-04-21 13:21 | 37.67562 | 36.45050 | 29028 ft | 428 kts | 135° |
| 2026-04-21 13:21 | 37.65626 | 36.47794 | 28443 ft | 424 kts | 135° |
| 2026-04-21 13:21 | 37.63658 | 36.50574 | 27850 ft | 420 kts | 135° |
| 2026-04-21 13:21 | 37.61741 | 36.53283 | 27267 ft | 416 kts | 135° |
| 2026-04-21 13:22 | 37.59840 | 36.55967 | 26690 ft | 412 kts | 135° |
| 2026-04-21 13:22 | 37.57949 | 36.58640 | 26113 ft | 408 kts | 135° |
| 2026-04-21 13:22 | 37.56057 | 36.61311 | 25535 ft | 404 kts | 135° |
| 2026-04-21 13:22 | 37.54210 | 36.63918 | 24970 ft | 400 kts | 134° |
| 2026-04-21 13:23 | 37.52368 | 36.66513 | 24404 ft | 396 kts | 135° |
| 2026-04-21 13:23 | 37.50542 | 36.69083 | 23843 ft | 392 kts | 135° |
| 2026-04-21 13:23 | 37.48761 | 36.71612 | 23292 ft | 388 kts | 135° |
| 2026-04-21 13:23 | 37.46997 | 36.74138 | 22692 ft | 386 kts | 134° |
| 2026-04-21 13:24 | 37.45237 | 36.76659 | 22131 ft | 382 kts | 134° |
| 2026-04-21 13:24 | 37.43490 | 36.79151 | 21584 ft | 378 kts | 134° |
| 2026-04-21 13:24 | 37.41770 | 36.81600 | 21047 ft | 374 kts | 134° |
| 2026-04-21 13:24 | 37.40066 | 36.84026 | 20513 ft | 370 kts | 134° |
| 2026-04-21 13:25 | 37.38382 | 36.86424 | 19985 ft | 366 kts | 134° |
| 2026-04-21 13:25 | 37.36712 | 36.88799 | 19459 ft | 362 kts | 134° |
| 2026-04-21 13:25 | 37.35060 | 36.91149 | 18939 ft | 358 kts | 134° |
| 2026-04-21 13:25 | 37.33406 | 36.93498 | 18417 ft | 355 kts | 134° |
| 2026-04-21 13:26 | 37.31793 | 36.95787 | 17909 ft | 351 kts | 134° |
| 2026-04-21 13:26 | 37.30185 | 36.98068 | 17401 ft | 348 kts | 134° |
| 2026-04-21 13:26 | 37.28604 | 37.00310 | 16901 ft | 344 kts | 134° |
| 2026-04-21 13:26 | 37.27021 | 37.02555 | 16399 ft | 341 kts | 134° |
| 2026-04-21 13:27 | 37.25465 | 37.04769 | 15904 ft | 338 kts | 133° |
| 2026-04-21 13:27 | 37.23963 | 37.06967 | 15418 ft | 335 kts | 132° |
| 2026-04-21 13:27 | 37.22454 | 37.09188 | 14927 ft | 331 kts | 132° |
| 2026-04-21 13:27 | 37.20983 | 37.11344 | 14448 ft | 328 kts | 132° |
| 2026-04-21 13:28 | 37.19504 | 37.13508 | 13968 ft | 325 kts | 132° |
| 2026-04-21 13:28 | 37.18042 | 37.15647 | 13491 ft | 322 kts | 132° |
| 2026-04-21 13:28 | 37.16589 | 37.17771 | 13017 ft | 319 kts | 132° |
| 2026-04-21 13:28 | 37.15155 | 37.19864 | 12549 ft | 317 kts | 132° |
| 2026-04-21 13:29 | 37.13728 | 37.21947 | 12082 ft | 314 kts | 132° |
| 2026-04-21 13:29 | 37.12306 | 37.24020 | 11616 ft | 311 kts | 132° |
| 2026-04-21 13:29 | 37.10889 | 37.25996 | 11161 ft | 309 kts | 134° |
| 2026-04-21 13:29 | 37.09417 | 37.27963 | 10700 ft | 306 kts | 135° |
| 2026-04-21 13:30 | 37.07987 | 37.29898 | 10374 ft | 300 kts | 135° |
| 2026-04-21 13:30 | 37.06614 | 37.31765 | 10198 ft | 289 kts | 135° |
| 2026-04-21 13:30 | 37.05270 | 37.33593 | 10001 ft | 280 kts | 135° |
| 2026-04-21 13:30 | 37.03973 | 37.35353 | 9654 ft | 277 kts | 135° |
| 2026-04-21 13:31 | 37.02668 | 37.37124 | 9296 ft | 276 kts | 135° |
| 2026-04-21 13:31 | 37.01366 | 37.38887 | 8942 ft | 274 kts | 135° |
| 2026-04-21 13:31 | 37.00081 | 37.40629 | 8593 ft | 272 kts | 135° |
| 2026-04-21 13:31 | 36.98802 | 37.42360 | 8248 ft | 274 kts | 135° |
| 2026-04-21 13:32 | 36.97498 | 37.44123 | 7892 ft | 276 kts | 135° |
| 2026-04-21 13:32 | 36.96210 | 37.45864 | 7540 ft | 274 kts | 135° |
| 2026-04-21 13:32 | 36.95088 | 37.47763 | 7247 ft | 273 kts | 117° |
| 2026-04-21 13:32 | 36.94474 | 37.50015 | 6925 ft | 274 kts | 106° |
| 2026-04-21 13:33 | 36.93979 | 37.52313 | 6552 ft | 277 kts | 107° |
| 2026-04-21 13:33 | 36.93465 | 37.54603 | 6295 ft | 271 kts | 107° |
| 2026-04-21 13:33 | 36.92932 | 37.56832 | 6110 ft | 263 kts | 112° |
| 2026-04-21 13:33 | 36.92088 | 37.58825 | 5982 ft | 260 kts | 126° |
| 2026-04-21 13:34 | 36.90990 | 37.60604 | 5847 ft | 260 kts | 135° |
| 2026-04-21 13:34 | 36.89719 | 37.62226 | 5662 ft | 261 kts | 137° |
| 2026-04-21 13:34 | 36.88444 | 37.63846 | 5280 ft | 263 kts | 136° |
| 2026-04-21 13:34 | 36.87173 | 37.65461 | 4899 ft | 263 kts | 137° |
| 2026-04-21 13:35 | 36.85875 | 37.67107 | 4471 ft | 265 kts | 137° |
| 2026-04-21 13:35 | 36.84631 | 37.68782 | 4071 ft | 267 kts | 128° |
| 2026-04-21 13:35 | 36.83851 | 37.70829 | 3973 ft | 256 kts | 102° |
| 2026-04-21 13:35 | 36.83897 | 37.73015 | 3991 ft | 255 kts | 73° |
| 2026-04-21 13:36 | 36.84733 | 37.74928 | 3997 ft | 257 kts | 46° |
| 2026-04-21 13:36 | 36.86199 | 37.76179 | 3994 ft | 253 kts | 17° |
| 2026-04-21 13:36 | 36.87891 | 37.76432 | 3993 ft | 248 kts | 349° |
| 2026-04-21 13:36 | 36.89465 | 37.75675 | 3993 ft | 243 kts | 321° |
| 2026-04-21 13:37 | 36.90534 | 37.74102 | 3993 ft | 239 kts | 293° |
| 2026-04-21 13:37 | 36.90877 | 37.72105 | 3999 ft | 237 kts | 271° |
| 2026-04-21 13:37 | 36.90963 | 37.70075 | 3989 ft | 228 kts | 278° |
| 2026-04-21 13:37 | 36.91234 | 37.68187 | 3981 ft | 214 kts | 280° |
| 2026-04-21 13:38 | 36.91488 | 37.66357 | 3993 ft | 212 kts | 279° |
| 2026-04-21 13:38 | 36.91711 | 37.64566 | 4002 ft | 204 kts | 278° |
| 2026-04-21 13:38 | 36.91898 | 37.62895 | 3991 ft | 185 kts | 276° |
| 2026-04-21 13:38 | 36.92062 | 37.61328 | 3985 ft | 184 kts | 278° |
| 2026-04-21 13:39 | 36.92296 | 37.59718 | 3968 ft | 189 kts | 280° |
| 2026-04-21 13:39 | 36.92598 | 37.58141 | 3735 ft | 184 kts | 285° |
| 2026-04-21 13:39 | 36.92917 | 37.56639 | 3495 ft | 173 kts | 284° |
| 2026-04-21 13:39 | 36.93214 | 37.55249 | 3279 ft | 154 kts | 285° |
| 2026-04-21 13:40 | 36.93485 | 37.53998 | 3103 ft | 149 kts | 285° |
| 2026-04-21 13:40 | 36.93760 | 37.52722 | 2886 ft | 152 kts | 285° |
| 2026-04-21 13:40 | 36.94036 | 37.51442 | 2674 ft | 152 kts | 284° |
| 2026-04-21 13:40 | 36.94313 | 37.50158 | 2487 ft | 152 kts | 283° |
| 2026-04-21 13:41 | 36.94571 | 37.48978 | 2322 ft | 128 kts | 283° |
| 2026-04-21 13:41 | 36.94720 | 37.48249 | 2321 ft | 55 kts | 287° |
| 2026-04-21 13:41 | 36.94811 | 37.47825 | 2321 ft | 50 kts | 285° |
| 2026-04-21 13:41 | 36.94892 | 37.47451 | 2321 ft | 39 kts | 285° |
| 2026-04-21 13:42 | 36.94946 | 37.47187 | 2321 ft | 15 kts | 269° |
| 2026-04-21 13:42 | 36.94884 | 37.47131 | 2321 ft | 9 kts | 194° |
| 2026-04-21 13:42 | 36.94820 | 37.47121 | 2321 ft | 7 kts | 164° |
| 2026-04-21 13:42 | 36.94799 | 37.47155 | 2321 ft | 7 kts | 110° |
| 2026-04-21 13:43 | 36.94765 | 37.47290 | 2321 ft | 24 kts | 105° |
| 2026-04-21 13:43 | 36.94715 | 37.47437 | 2321 ft | 12 kts | 172° |
| 2026-04-21 13:43 | 36.94647 | 37.47405 | 2321 ft | 10 kts | 203° |
| 2026-04-21 13:43 | 36.94601 | 37.47386 | 2321 ft | 0 kts | 197° |
| 2026-04-21 13:44 | 36.94600 | 37.47386 | 2321 ft | 0 kts | 198° |
| 2026-04-21 13:44 | 36.94599 | 37.47385 | 2321 ft | 0 kts | 198° |